Terminal Aerodrome Forecast
Issued by NWS

Home | Current Version | Previous Version | Text Only | Print | Product List | Glossary On
Versions: 1 2 3 4 5 6 7 8 9 10 11 12 13
000
FTUS45 KCYS 240520
TAFLAR
TAF
KLAR 240520Z 2406/2506 26010KT P6SM SCT200
     FM241600 25018G28KT P6SM SKC
     FM250100 22008KT P6SM SKC=

USA.gov is the U.S. government's official web portal to all federal, state and local government web resources and services.